Time;durP1;ratioP1;P1;durP2;ratioP2;P2;SDS_P1;SDS_P2;PMS_P1;PMS_P2;Temp;Humidity;BMP_temperature;BMP_pressure;BME280_temperature;BME280_humidity;BME280_pressure;Samples;Min_cycle;Max_cycle;Signal;HPM_P1;HPM_P2
2021/03/14 00:00:09;;;;;;;;;;;12.60;64.90;;;;;;2098460;28;720;-46
2021/03/14 00:01:28;;;;;;;;;;;12.60;65.00;;;;;;2098051;28;741;-48
2021/03/14 00:02:47;;;;;;;;;;;12.60;65.70;;;;;;2098404;28;765;-48
2021/03/14 00:04:06;;;;;;;;;;;12.60;65.00;;;;;;2098719;28;753;-47
2021/03/14 00:05:27;;;;;;;;;;;12.60;65.00;;;;;;2097761;28;722;-48
2021/03/14 00:06:46;;;;;;;;;;;12.60;65.00;;;;;;2098017;28;1476;-51
2021/03/14 00:08:06;;;;;;;;;;;12.60;65.00;;;;;;2098564;28;737;-49
2021/03/14 00:09:25;;;;;;;;;;;12.60;65.00;;;;;;2098543;28;1016;-49
2021/03/14 00:10:46;;;;;;;;;;;12.60;65.00;;;;;;2098712;28;711;-47
2021/03/14 00:12:05;;;;;;;;;;;12.60;65.10;;;;;;2098855;28;784;-47
2021/03/14 00:13:26;;;;;;;;;;;12.60;65.10;;;;;;2097751;28;797;-47
2021/03/14 00:14:45;;;;;;;;;;;12.60;65.10;;;;;;2097918;28;722;-49
2021/03/14 00:16:05;;;;;;;;;;;12.60;65.90;;;;;;2098678;28;720;-48
2021/03/14 00:17:24;;;;;;;;;;;12.50;65.80;;;;;;2082841;28;1800;-50
2021/03/14 00:18:43;;;;;;;;;;;12.60;65.20;;;;;;2088923;28;920;-46
2021/03/14 00:20:06;;;;;;;;;;;12.50;65.00;;;;;;2093820;28;999;-46
2021/03/14 00:21:25;;;;;;;;;;;12.50;65.00;;;;;;2081439;28;741;-46
2021/03/14 00:22:44;;;;;;;;;;;12.50;65.10;;;;;;2086646;28;718;-46
2021/03/14 00:24:04;;;;;;;;;;;12.50;65.10;;;;;;2088662;28;718;-46
2021/03/14 00:25:23;;;;;;;;;;;12.50;65.20;;;;;;2089759;28;753;-48
2021/03/14 00:26:42;;;;;;;;;;;12.50;65.20;;;;;;2089457;28;1373;-46
2021/03/14 00:28:01;;;;;;;;;;;12.50;65.10;;;;;;2089893;28;718;-50
2021/03/14 00:29:21;;;;;;;;;;;12.50;65.20;;;;;;2090259;28;773;-48
2021/03/14 00:30:40;;;;;;;;;;;12.50;65.90;;;;;;2089590;28;763;-51
2021/03/14 00:32:01;;;;;;;;;;;12.50;65.10;;;;;;2089973;28;728;-48
2021/03/14 00:33:21;;;;;;;;;;;12.50;65.20;;;;;;2092923;28;1309;-46
2021/03/14 00:34:40;;;;;;;;;;;12.50;65.20;;;;;;2089501;28;795;-49
2021/03/14 00:35:59;;;;;;;;;;;12.50;65.20;;;;;;2090027;28;740;-49
2021/03/14 00:37:19;;;;;;;;;;;12.50;65.20;;;;;;2089872;28;1357;-48
2021/03/14 00:38:38;;;;;;;;;;;12.50;65.20;;;;;;2089336;28;749;-49
2021/03/14 00:39:57;;;;;;;;;;;12.50;65.20;;;;;;2089699;28;750;-50
2021/03/14 00:41:16;;;;;;;;;;;12.50;65.30;;;;;;2090101;28;727;-48
2021/03/14 00:42:35;;;;;;;;;;;12.50;65.20;;;;;;2092265;28;976;-53
2021/03/14 00:43:55;;;;;;;;;;;12.50;65.30;;;;;;2089874;28;749;-48
2021/03/14 00:45:14;;;;;;;;;;;12.50;65.30;;;;;;2088617;28;755;-49
2021/03/14 00:46:33;;;;;;;;;;;12.40;66.00;;;;;;2089586;28;778;-49
2021/03/14 00:47:52;;;;;;;;;;;12.50;65.30;;;;;;2088189;28;952;-50
2021/03/14 00:49:15;;;;;;;;;;;12.50;65.30;;;;;;2092228;28;1081;-51
2021/03/14 00:50:34;;;;;;;;;;;12.40;65.30;;;;;;2081086;28;758;-50
2021/03/14 00:51:54;;;;;;;;;;;12.40;65.30;;;;;;2078051;28;762;-48
2021/03/14 00:53:13;;;;;;;;;;;12.40;65.30;;;;;;2070039;28;723;-48
2021/03/14 00:54:40;;;;;;;;;;;12.40;65.30;;;;;;2076635;28;724;-47
2021/03/14 00:55:59;;;;;;;;;;;12.40;65.30;;;;;;2081753;28;717;-47
2021/03/14 00:57:18;;;;;;;;;;;12.40;65.30;;;;;;2081588;28;1398;-50
2021/03/14 00:58:37;;;;;;;;;;;12.40;65.30;;;;;;2073091;28;782;-46
2021/03/14 00:59:57;;;;;;;;;;;12.40;65.30;;;;;;2078096;28;728;-47
2021/03/14 01:01:17;;;;;;;;;;;12.40;65.30;;;;;;2081518;28;745;-48
2021/03/14 01:02:37;;;;;;;;;;;12.40;65.40;;;;;;2081241;28;729;-49
2021/03/14 01:03:56;;;;;;;;;;;12.40;65.40;;;;;;2081219;28;939;-51
2021/03/14 01:05:15;;;;;;;;;;;12.40;65.50;;;;;;2069053;28;821;-49
2021/03/14 01:06:34;;;;;;;;;;;12.40;66.10;;;;;;2078165;28;762;-49
2021/03/14 01:07:56;;;;;;;;;;;12.40;66.10;;;;;;2080957;28;769;-47
2021/03/14 01:09:16;;;;;;;;;;;12.40;65.50;;;;;;2081410;28;797;-49
2021/03/14 01:10:35;;;;;;;;;;;12.40;65.50;;;;;;2081103;28;718;-45
2021/03/14 01:11:56;;;;;;;;;;;12.40;65.50;;;;;;2078113;28;953;-48
2021/03/14 01:13:27;;;;;;;;;;;12.40;65.50;;;;;;2079224;28;978;-51
2021/03/14 01:14:47;;;;;;;;;;;12.40;65.60;;;;;;2077827;28;722;-51
2021/03/14 01:16:20;;;;;;;;;;;12.40;65.60;;;;;;2079959;28;742;-49
2021/03/14 01:17:40;;;;;;;;;;;12.30;65.40;;;;;;2080449;28;976;-48
2021/03/14 01:18:59;;;;;;;;;;;12.40;65.50;;;;;;2089765;28;1066;-48
2021/03/14 01:20:19;;;;;;;;;;;12.30;65.50;;;;;;2084615;28;1064;-48
2021/03/14 01:21:38;;;;;;;;;;;12.30;66.20;;;;;;2094614;28;1055;-49
2021/03/14 01:22:57;;;;;;;;;;;12.30;65.40;;;;;;2098274;28;705;-48
2021/03/14 01:24:17;;;;;;;;;;;12.30;65.40;;;;;;2096331;28;742;-48
2021/03/14 01:25:36;;;;;;;;;;;12.30;66.20;;;;;;2096420;28;909;-50
2021/03/14 01:26:55;;;;;;;;;;;12.30;66.20;;;;;;2097519;28;1359;-48
2021/03/14 01:28:14;;;;;;;;;;;12.30;65.50;;;;;;2097521;28;747;-47
2021/03/14 01:29:34;;;;;;;;;;;12.30;65.50;;;;;;2097131;28;989;-47
2021/03/14 01:30:53;;;;;;;;;;;12.30;65.40;;;;;;2097950;28;698;-50
2021/03/14 01:32:12;;;;;;;;;;;12.30;65.40;;;;;;2097206;28;1211;-48
2021/03/14 01:33:31;;;;;;;;;;;12.30;65.50;;;;;;2097762;28;952;-48
2021/03/14 01:34:51;;;;;;;;;;;12.30;65.50;;;;;;2097728;28;786;-48
2021/03/14 01:36:10;;;;;;;;;;;12.30;65.50;;;;;;2097296;28;738;-48
2021/03/14 01:37:29;;;;;;;;;;;12.30;65.50;;;;;;2085207;28;1752;-46
2021/03/14 01:38:48;;;;;;;;;;;12.30;65.50;;;;;;2090946;28;745;-49
2021/03/14 01:40:08;;;;;;;;;;;12.30;65.50;;;;;;2094163;28;734;-47
2021/03/14 01:41:27;;;;;;;;;;;12.30;65.60;;;;;;2097595;28;735;-51
2021/03/14 01:42:46;;;;;;;;;;;12.30;66.30;;;;;;2096818;28;856;-48
2021/03/14 01:44:05;;;;;;;;;;;12.30;65.50;;;;;;2086087;28;722;-49
2021/03/14 01:45:25;;;;;;;;;;;12.30;65.50;;;;;;2093836;28;782;-49
2021/03/14 01:46:44;;;;;;;;;;;12.30;65.60;;;;;;2096741;28;1388;-49
2021/03/14 01:48:03;;;;;;;;;;;12.20;65.50;;;;;;2094037;28;1070;-49
2021/03/14 01:49:23;;;;;;;;;;;12.20;65.50;;;;;;2089734;28;1068;-51
2021/03/14 01:50:42;;;;;;;;;;;12.20;65.50;;;;;;2081127;28;727;-47
2021/03/14 01:52:01;;;;;;;;;;;12.20;65.50;;;;;;2081293;28;729;-52
2021/03/14 01:53:20;;;;;;;;;;;12.20;65.50;;;;;;2080643;28;736;-48
2021/03/14 01:54:40;;;;;;;;;;;12.20;65.50;;;;;;2077689;28;726;-49
2021/03/14 01:55:59;;;;;;;;;;;12.20;65.50;;;;;;2077788;28;722;-49
2021/03/14 01:57:19;;;;;;;;;;;12.20;65.50;;;;;;2080259;28;1466;-47
2021/03/14 01:58:38;;;;;;;;;;;12.20;65.50;;;;;;2081443;28;754;-48
2021/03/14 01:59:57;;;;;;;;;;;12.20;66.30;;;;;;2080758;28;757;-49
2021/03/14 02:01:17;;;;;;;;;;;12.20;66.40;;;;;;2072588;28;768;-47
2021/03/14 02:02:36;;;;;;;;;;;12.20;66.30;;;;;;2077865;28;778;-49
2021/03/14 02:03:55;;;;;;;;;;;12.20;65.60;;;;;;2089087;28;715;-48
2021/03/14 02:05:15;;;;;;;;;;;12.20;65.60;;;;;;2079897;28;745;-49
2021/03/14 02:06:34;;;;;;;;;;;12.20;65.60;;;;;;2085290;28;1223;-49
2021/03/14 02:07:54;;;;;;;;;;;12.20;65.60;;;;;;2090514;28;1286;-50
2021/03/14 02:09:13;;;;;;;;;;;12.20;65.60;;;;;;2096355;28;1022;-50
2021/03/14 02:10:32;;;;;;;;;;;12.20;65.60;;;;;;2091902;28;910;-47
2021/03/14 02:11:51;;;;;;;;;;;12.20;65.60;;;;;;2091433;28;1910;-49
2021/03/14 02:13:13;;;;;;;;;;;12.20;65.70;;;;;;2094832;28;1081;-47
2021/03/14 02:14:33;;;;;;;;;;;12.20;65.60;;;;;;2096020;28;1197;-48
2021/03/14 02:16:02;;;;;;;;;;;12.20;66.40;;;;;;2087745;28;1228;-49
2021/03/14 02:17:21;;;;;;;;;;;12.20;65.60;;;;;;2083888;28;1426;-50
2021/03/14 02:18:41;;;;;;;;;;;12.20;65.60;;;;;;2089333;28;1118;-48
2021/03/14 02:20:04;;;;;;;;;;;12.10;65.50;;;;;;2089508;28;1284;-49
2021/03/14 02:21:23;;;;;;;;;;;12.10;66.20;;;;;;2093576;28;1198;-48
2021/03/14 02:22:44;;;;;;;;;;;12.10;65.60;;;;;;2094400;28;879;-50
2021/03/14 02:24:10;;;;;;;;;;;12.10;65.60;;;;;;2090737;28;1099;-46
2021/03/14 02:25:35;;;;;;;;;;;12.10;65.60;;;;;;2089545;28;1188;-46
2021/03/14 02:27:04;;;;;;;;;;;12.10;65.60;;;;;;2094258;28;1413;-46
2021/03/14 02:28:23;;;;;;;;;;;12.10;65.60;;;;;;2084787;28;1161;-46
2021/03/14 02:29:42;;;;;;;;;;;12.10;65.50;;;;;;2088315;28;1042;-47
2021/03/14 02:31:02;;;;;;;;;;;12.10;65.50;;;;;;2089907;28;1902;-46
2021/03/14 02:32:21;;;;;;;;;;;12.10;65.60;;;;;;2094054;28;1193;-47
2021/03/14 02:33:40;;;;;;;;;;;12.10;65.60;;;;;;2081837;28;1259;-47
2021/03/14 02:35:00;;;;;;;;;;;12.10;65.60;;;;;;2083479;28;1170;-46
2021/03/14 02:36:19;;;;;;;;;;;12.10;65.60;;;;;;2089659;28;1146;-47
2021/03/14 02:37:39;;;;;;;;;;;12.10;65.70;;;;;;2084032;28;1394;-46
2021/03/14 02:38:58;;;;;;;;;;;12.10;65.60;;;;;;2088292;28;1213;-46
2021/03/14 02:40:17;;;;;;;;;;;12.10;65.70;;;;;;2092306;28;1067;-46
2021/03/14 02:41:36;;;;;;;;;;;12.10;65.60;;;;;;2092992;28;1150;-46
2021/03/14 02:42:56;;;;;;;;;;;12.10;65.60;;;;;;2094845;28;1189;-46
2021/03/14 02:44:15;;;;;;;;;;;12.10;66.30;;;;;;2093908;28;1017;-46
2021/03/14 02:45:34;;;;;;;;;;;12.10;66.30;;;;;;2090283;28;1204;-46
2021/03/14 02:46:53;;;;;;;;;;;12.10;65.60;;;;;;2078594;28;1520;-46
2021/03/14 02:48:12;;;;;;;;;;;12.10;65.70;;;;;;2087383;28;1048;-47
2021/03/14 02:49:33;;;;;;;;;;;12.10;65.70;;;;;;2091474;28;1132;-46
2021/03/14 02:50:52;;;;;;;;;;;12.10;65.70;;;;;;2088535;28;1225;-47
2021/03/14 02:52:11;;;;;;;;;;;12.10;65.70;;;;;;2089098;28;1409;-46
2021/03/14 02:53:30;;;;;;;;;;;12.00;65.60;;;;;;2093883;28;1269;-46
2021/03/14 02:54:50;;;;;;;;;;;12.00;65.60;;;;;;2092355;28;848;-46
2021/03/14 02:56:09;;;;;;;;;;;12.00;65.60;;;;;;2095745;28;878;-46
2021/03/14 02:57:28;;;;;;;;;;;12.00;65.70;;;;;;2095493;28;1480;-47
2021/03/14 02:58:48;;;;;;;;;;;12.00;65.50;;;;;;2078876;28;1156;-46
2021/03/14 03:00:08;;;;;;;;;;;12.00;65.60;;;;;;2093764;28;1464;-46
2021/03/14 03:01:27;;;;;;;;;;;12.00;66.30;;;;;;2089451;28;1124;-46
2021/03/14 03:02:47;;;;;;;;;;;12.00;65.70;;;;;;2093080;28;1298;-46
2021/03/14 03:04:06;;;;;;;;;;;12.00;65.60;;;;;;2093320;28;1440;-45
2021/03/14 03:05:25;;;;;;;;;;;12.00;65.50;;;;;;2096437;28;1055;-47
2021/03/14 03:06:44;;;;;;;;;;;12.00;65.60;;;;;;2096602;28;1507;-46
2021/03/14 03:08:04;;;;;;;;;;;12.00;65.60;;;;;;2095206;28;1237;-47
2021/03/14 03:09:23;;;;;;;;;;;12.00;65.60;;;;;;2094451;28;1070;-46
2021/03/14 03:10:44;;;;;;;;;;;12.00;65.50;;;;;;2094998;28;1619;-46
2021/03/14 03:12:03;;;;;;;;;;;12.00;65.60;;;;;;2093041;28;1038;-46
2021/03/14 03:13:23;;;;;;;;;;;12.00;65.60;;;;;;2088451;28;1441;-46
2021/03/14 03:14:43;;;;;;;;;;;12.00;65.70;;;;;;2080406;28;1451;-47
2021/03/14 03:16:03;;;;;;;;;;;12.00;66.50;;;;;;2077038;28;1375;-46
2021/03/14 03:17:23;;;;;;;;;;;12.00;65.70;;;;;;2083839;28;1904;-45
2021/03/14 03:18:42;;;;;;;;;;;12.00;65.80;;;;;;2071791;28;1517;-46
2021/03/14 03:20:01;;;;;;;;;;;12.00;65.80;;;;;;2076294;28;1166;-46
2021/03/14 03:21:21;;;;;;;;;;;12.00;65.80;;;;;;2080203;28;1470;-45
2021/03/14 03:22:40;;;;;;;;;;;12.00;65.70;;;;;;2088256;28;1271;-45
2021/03/14 03:24:00;;;;;;;;;;;12.00;65.70;;;;;;2085561;28;1210;-45
2021/03/14 03:25:19;;;;;;;;;;;12.00;65.80;;;;;;2086662;28;1131;-45
2021/03/14 03:26:38;;;;;;;;;;;12.00;65.70;;;;;;2091161;28;1174;-45
2021/03/14 03:27:58;;;;;;;;;;;12.00;65.70;;;;;;2088754;28;1215;-46
2021/03/14 03:29:17;;;;;;;;;;;12.00;65.70;;;;;;2091794;28;1576;-45
2021/03/14 03:30:36;;;;;;;;;;;12.00;66.40;;;;;;2095193;28;1182;-45
2021/03/14 03:31:55;;;;;;;;;;;12.00;65.70;;;;;;2092017;28;1914;-45
2021/03/14 03:33:15;;;;;;;;;;;12.00;65.60;;;;;;2082842;28;1615;-45
2021/03/14 03:34:34;;;;;;;;;;;12.00;65.70;;;;;;2083922;28;1114;-45
2021/03/14 03:35:53;;;;;;;;;;;11.90;65.50;;;;;;2090530;28;1237;-45
2021/03/14 03:37:13;;;;;;;;;;;11.90;65.60;;;;;;2092398;28;1475;-45
2021/03/14 03:38:32;;;;;;;;;;;11.90;65.70;;;;;;2092159;28;1303;-45
2021/03/14 03:39:51;;;;;;;;;;;11.90;65.70;;;;;;2085069;28;1102;-45
2021/03/14 03:41:12;;;;;;;;;;;11.90;65.70;;;;;;2089063;28;1292;-45
2021/03/14 03:42:32;;;;;;;;;;;11.90;65.70;;;;;;2086708;28;1214;-45
2021/03/14 03:43:52;;;;;;;;;;;12.00;65.90;;;;;;2079537;28;1243;-47
2021/03/14 03:45:11;;;;;;;;;;;11.90;65.70;;;;;;2083547;28;1182;-46
2021/03/14 03:46:30;;;;;;;;;;;11.90;65.70;;;;;;2090904;28;1371;-47
2021/03/14 03:47:50;;;;;;;;;;;11.90;65.70;;;;;;2093776;28;1153;-46
2021/03/14 03:49:10;;;;;;;;;;;11.90;65.70;;;;;;2089020;28;1113;-46
2021/03/14 03:50:29;;;;;;;;;;;11.90;65.80;;;;;;2092772;28;1014;-44
2021/03/14 03:51:49;;;;;;;;;;;11.90;65.80;;;;;;2091503;28;1906;-45
2021/03/14 03:53:08;;;;;;;;;;;11.90;65.80;;;;;;2083115;28;1287;-45
2021/03/14 03:54:29;;;;;;;;;;;11.90;65.70;;;;;;2089967;28;1035;-46
2021/03/14 03:55:49;;;;;;;;;;;11.90;65.70;;;;;;2089354;28;1072;-45
2021/03/14 03:57:08;;;;;;;;;;;11.90;65.80;;;;;;2089963;28;1429;-45
2021/03/14 03:58:29;;;;;;;;;;;11.90;66.50;;;;;;2089549;28;1260;-47
2021/03/14 03:59:48;;;;;;;;;;;11.90;65.80;;;;;;2081514;28;1122;-44
2021/03/14 04:01:10;;;;;;;;;;;11.90;65.80;;;;;;2081517;28;1076;-45
2021/03/14 04:02:30;;;;;;;;;;;11.90;65.90;;;;;;2089049;28;1090;-44
2021/03/14 04:03:49;;;;;;;;;;;11.90;65.90;;;;;;2094176;28;1184;-45
2021/03/14 04:05:09;;;;;;;;;;;11.90;65.80;;;;;;2089203;28;1581;-45
2021/03/14 04:06:28;;;;;;;;;;;11.90;65.90;;;;;;2092436;28;1461;-47
2021/03/14 04:07:48;;;;;;;;;;;11.80;65.80;;;;;;2091433;28;1288;-48
2021/03/14 04:09:07;;;;;;;;;;;11.80;65.80;;;;;;2093736;28;1093;-48
2021/03/14 04:10:26;;;;;;;;;;;11.90;65.80;;;;;;2087686;28;1041;-47
2021/03/14 04:11:46;;;;;;;;;;;11.80;65.80;;;;;;2089809;28;1979;-49
2021/03/14 04:13:05;;;;;;;;;;;11.80;65.80;;;;;;2095174;28;1168;-47
2021/03/14 04:14:24;;;;;;;;;;;11.80;65.80;;;;;;2094810;28;1242;-47
2021/03/14 04:15:43;;;;;;;;;;;11.80;65.80;;;;;;2090185;28;1408;-46
2021/03/14 04:17:03;;;;;;;;;;;11.80;65.80;;;;;;2091525;28;1398;-47
2021/03/14 04:18:22;;;;;;;;;;;11.80;65.80;;;;;;2091024;28;1107;-45
2021/03/14 04:19:41;;;;;;;;;;;11.80;65.70;;;;;;2091207;28;1246;-49
2021/03/14 04:21:01;;;;;;;;;;;11.80;65.80;;;;;;2092107;28;1210;-49
2021/03/14 04:22:21;;;;;;;;;;;11.80;65.80;;;;;;2092683;28;1243;-48
2021/03/14 04:23:41;;;;;;;;;;;11.80;65.80;;;;;;2084401;28;1307;-47
2021/03/14 04:24:59;;;;;;;;;;;11.80;65.80;;;;;;2089347;28;1356;-48
2021/03/14 04:26:20;;;;;;;;;;;11.80;65.80;;;;;;2091618;28;1155;-48
2021/03/14 04:27:39;;;;;;;;;;;11.80;66.60;;;;;;2089400;28;1456;-51
2021/03/14 04:28:58;;;;;;;;;;;11.80;65.80;;;;;;2084914;28;1195;-48
2021/03/14 04:30:18;;;;;;;;;;;11.80;65.80;;;;;;2081737;28;1215;-51
2021/03/14 04:31:40;;;;;;;;;;;11.80;65.80;;;;;;2089764;28;1975;-47
2021/03/14 04:33:00;;;;;;;;;;;11.80;65.80;;;;;;2094860;28;1119;-49
2021/03/14 04:34:19;;;;;;;;;;;11.80;65.90;;;;;;2096125;28;1207;-48
2021/03/14 04:35:39;;;;;;;;;;;11.80;65.80;;;;;;2084387;28;1216;-47
2021/03/14 04:36:58;;;;;;;;;;;11.80;65.90;;;;;;2088118;28;1448;-47
2021/03/14 04:38:18;;;;;;;;;;;11.80;65.90;;;;;;2092342;28;1207;-46
2021/03/14 04:39:38;;;;;;;;;;;11.80;66.60;;;;;;2096788;28;1193;-47
2021/03/14 04:40:57;;;;;;;;;;;11.80;65.90;;;;;;2093388;28;1096;-49
2021/03/14 04:42:16;;;;;;;;;;;11.80;65.90;;;;;;2096521;28;919;-48
2021/03/14 04:43:35;;;;;;;;;;;11.80;65.80;;;;;;2095160;28;1220;-49
2021/03/14 04:44:54;;;;;;;;;;;11.70;65.80;;;;;;2088529;28;1261;-48
2021/03/14 04:46:14;;;;;;;;;;;11.80;65.80;;;;;;2094395;28;1053;-52
2021/03/14 04:47:33;;;;;;;;;;;11.80;65.80;;;;;;2094051;28;1545;-47
2021/03/14 04:48:53;;;;;;;;;;;11.70;65.80;;;;;;2092514;28;1230;-48
2021/03/14 04:50:14;;;;;;;;;;;11.70;65.80;;;;;;2086681;28;1435;-47
2021/03/14 04:51:36;;;;;;;;;;;11.70;65.80;;;;;;2095403;28;1973;-49
2021/03/14 04:52:56;;;;;;;;;;;11.70;66.50;;;;;;2092418;28;1209;-46
2021/03/14 04:54:15;;;;;;;;;;;11.70;65.80;;;;;;2075605;28;1255;-49
2021/03/14 04:55:35;;;;;;;;;;;11.70;65.70;;;;;;2082765;28;1225;-49
2021/03/14 04:56:54;;;;;;;;;;;11.70;65.80;;;;;;2087614;28;1425;-50
2021/03/14 04:58:17;;;;;;;;;;;11.70;65.80;;;;;;2094839;28;1143;-50
2021/03/14 04:59:36;;;;;;;;;;;11.70;65.80;;;;;;2088613;28;1034;-49
2021/03/14 05:00:55;;;;;;;;;;;11.70;65.80;;;;;;2088680;28;1068;-50
2021/03/14 05:02:14;;;;;;;;;;;11.70;65.80;;;;;;2090178;28;1304;-47
2021/03/14 05:03:33;;;;;;;;;;;11.70;66.50;;;;;;2086140;28;1304;-46
2021/03/14 05:04:53;;;;;;;;;;;11.70;66.50;;;;;;2083849;28;1383;-48
2021/03/14 05:06:14;;;;;;;;;;;11.70;65.80;;;;;;2090064;28;1546;-47
2021/03/14 05:07:33;;;;;;;;;;;11.70;65.80;;;;;;2077775;28;1389;-49
2021/03/14 05:08:53;;;;;;;;;;;11.70;65.80;;;;;;2084292;28;1239;-47
2021/03/14 05:10:14;;;;;;;;;;;11.70;65.80;;;;;;2090427;28;1093;-46
2021/03/14 05:11:33;;;;;;;;;;;11.70;65.80;;;;;;2091627;28;1902;-45
2021/03/14 05:12:53;;;;;;;;;;;11.70;65.80;;;;;;2091266;28;1161;-48
2021/03/14 05:14:12;;;;;;;;;;;11.70;65.80;;;;;;2086930;28;1412;-47
2021/03/14 05:15:31;;;;;;;;;;;11.70;65.80;;;;;;2084502;28;1280;-45
2021/03/14 05:16:50;;;;;;;;;;;11.70;65.80;;;;;;2083705;28;1455;-48
2021/03/14 05:18:13;;;;;;;;;;;11.70;65.80;;;;;;2086928;28;1310;-46
2021/03/14 05:19:32;;;;;;;;;;;11.70;65.80;;;;;;2084326;28;1339;-47
2021/03/14 05:20:51;;;;;;;;;;;11.70;65.80;;;;;;2081027;28;1123;-51
2021/03/14 05:22:11;;;;;;;;;;;11.70;65.80;;;;;;2084102;28;1049;-48
2021/03/14 05:23:31;;;;;;;;;;;11.70;65.80;;;;;;2080280;28;908;-49
2021/03/14 05:24:50;;;;;;;;;;;11.70;65.80;;;;;;2086902;28;1161;-51
2021/03/14 05:26:10;;;;;;;;;;;11.70;65.80;;;;;;2079745;28;1226;-48
2021/03/14 05:27:29;;;;;;;;;;;11.60;65.70;;;;;;2085898;28;1503;-50
2021/03/14 05:28:48;;;;;;;;;;;11.60;65.70;;;;;;2080267;28;1140;-48
2021/03/14 05:30:07;;;;;;;;;;;11.60;66.40;;;;;;2082337;28;1084;-52
2021/03/14 05:31:31;;;;;;;;;;;11.60;66.40;;;;;;2092994;28;1973;-45
2021/03/14 05:32:50;;;;;;;;;;;11.60;65.70;;;;;;2091632;28;1160;-50
2021/03/14 05:34:15;;;;;;;;;;;11.60;65.70;;;;;;2093896;28;1147;-49
2021/03/14 05:35:34;;;;;;;;;;;11.60;65.80;;;;;;2092077;28;1256;-48
2021/03/14 05:36:54;;;;;;;;;;;11.60;65.70;;;;;;2090174;28;1541;-48
2021/03/14 05:38:13;;;;;;;;;;;11.60;65.70;;;;;;2089756;28;1774;-47
2021/03/14 05:39:32;;;;;;;;;;;11.60;65.70;;;;;;2089282;28;1215;-49
2021/03/14 05:40:51;;;;;;;;;;;11.60;65.70;;;;;;2092661;28;989;-48
2021/03/14 05:42:11;;;;;;;;;;;11.60;65.70;;;;;;2089944;28;1391;-50
2021/03/14 05:43:30;;;;;;;;;;;11.60;65.80;;;;;;2087506;28;1293;-46
2021/03/14 05:44:49;;;;;;;;;;;11.60;65.70;;;;;;2080113;28;1165;-48
2021/03/14 05:46:11;;;;;;;;;;;11.60;65.70;;;;;;2087866;28;1137;-47
2021/03/14 05:47:31;;;;;;;;;;;11.60;65.70;;;;;;2087968;28;1490;-46
2021/03/14 05:48:50;;;;;;;;;;;11.60;65.70;;;;;;2091485;28;1288;-50
2021/03/14 05:50:11;;;;;;;;;;;11.60;65.80;;;;;;2091602;28;1374;-48
2021/03/14 05:51:30;;;;;;;;;;;11.70;65.90;;;;;;2094937;28;1911;-45
2021/03/14 05:52:50;;;;;;;;;;;11.60;65.80;;;;;;2080295;28;1232;-50
2021/03/14 05:54:12;;;;;;;;;;;11.60;65.80;;;;;;2090053;28;1190;-48
2021/03/14 05:55:31;;;;;;;;;;;11.60;65.80;;;;;;2083490;28;1098;-48
2021/03/14 05:56:51;;;;;;;;;;;11.60;65.80;;;;;;2089575;28;1399;-51
2021/03/14 05:58:10;;;;;;;;;;;11.60;65.80;;;;;;2095353;28;1242;-48
2021/03/14 05:59:29;;;;;;;;;;;11.60;65.80;;;;;;2094053;28;1160;-49
2021/03/14 06:00:50;;;;;;;;;;;11.60;65.80;;;;;;2089611;28;1211;-47
2021/03/14 06:02:09;;;;;;;;;;;11.60;65.80;;;;;;2095249;28;1091;-47
2021/03/14 06:03:28;;;;;;;;;;;11.60;65.80;;;;;;2091225;28;1135;-46
2021/03/14 06:04:48;;;;;;;;;;;11.60;65.80;;;;;;2094374;28;1186;-50
2021/03/14 06:06:07;;;;;;;;;;;11.60;65.80;;;;;;2091677;28;1285;-48
2021/03/14 06:07:26;;;;;;;;;;;11.60;65.80;;;;;;2091047;28;1440;-47
2021/03/14 06:08:45;;;;;;;;;;;11.60;65.80;;;;;;2091322;28;1500;-47
2021/03/14 06:10:06;;;;;;;;;;;11.60;65.90;;;;;;2093539;28;1299;-49
2021/03/14 06:11:25;;;;;;;;;;;11.60;65.80;;;;;;2082084;28;2009;-50
2021/03/14 06:12:44;;;;;;;;;;;11.60;65.80;;;;;;2086857;28;1193;-46
2021/03/14 06:14:03;;;;;;;;;;;11.50;65.70;;;;;;2096900;28;1393;-45
2021/03/14 06:15:23;;;;;;;;;;;11.50;65.70;;;;;;2095517;28;1170;-45
2021/03/14 06:16:45;;;;;;;;;;;11.60;65.80;;;;;;2096857;28;1224;-45
2021/03/14 06:18:05;;;;;;;;;;;11.50;65.60;;;;;;2093245;28;1183;-45
2021/03/14 06:19:24;;;;;;;;;;;11.60;65.70;;;;;;2097098;28;1150;-45
2021/03/14 06:20:44;;;;;;;;;;;11.50;65.60;;;;;;2095962;28;1152;-45
2021/03/14 06:22:21;;;;;;;;;;;11.50;65.60;;;;;;2095242;28;1152;-45
2021/03/14 06:23:40;;;;;;;;;;;11.50;65.70;;;;;;2093553;28;1289;-44
2021/03/14 06:25:00;;;;;;;;;;;11.50;65.60;;;;;;2092260;28;1388;-44
2021/03/14 06:26:19;;;;;;;;;;;11.50;65.60;;;;;;2089547;28;1089;-45
2021/03/14 06:27:51;;;;;;;;;;;11.50;65.60;;;;;;2093327;28;1539;-47
2021/03/14 06:29:16;;;;;;;;;;;11.50;65.70;;;;;;2092673;28;1436;-45
2021/03/14 06:30:35;;;;;;;;;;;11.50;65.70;;;;;;2092397;28;1402;-49
2021/03/14 06:31:56;;;;;;;;;;;11.50;65.80;;;;;;2091371;28;1902;-47
2021/03/14 06:33:16;;;;;;;;;;;11.50;65.70;;;;;;2087337;28;1423;-47
2021/03/14 06:34:36;;;;;;;;;;;11.60;65.70;;;;;;2087662;28;1295;-46
2021/03/14 06:35:56;;;;;;;;;;;11.60;65.80;;;;;;2091048;28;1202;-44
2021/03/14 06:37:16;;;;;;;;;;;11.60;65.80;;;;;;2094894;28;1381;-44
2021/03/14 06:38:36;;;;;;;;;;;11.60;65.90;;;;;;2090449;28;1225;-47
2021/03/14 06:39:55;;;;;;;;;;;11.60;66.40;;;;;;2089416;28;1300;-45
2021/03/14 06:41:14;;;;;;;;;;;11.50;65.60;;;;;;2093540;28;1603;-45
2021/03/14 06:42:33;;;;;;;;;;;11.50;65.80;;;;;;2094201;28;1151;-44
2021/03/14 06:43:56;;;;;;;;;;;11.50;65.90;;;;;;2079753;28;1212;-45
2021/03/14 06:45:15;;;;;;;;;;;11.60;66.20;;;;;;2087638;28;1501;-45
2021/03/14 06:46:35;;;;;;;;;;;11.50;66.00;;;;;;2087345;28;1160;-45
2021/03/14 06:47:57;;;;;;;;;;;11.50;66.10;;;;;;2088940;28;1256;-45
2021/03/14 06:49:16;;;;;;;;;;;11.50;66.20;;;;;;2091143;28;1136;-46
2021/03/14 06:50:40;;;;;;;;;;;11.50;66.20;;;;;;2089825;28;1193;-45
2021/03/14 06:51:59;;;;;;;;;;;11.50;66.10;;;;;;2089104;28;1975;-47
2021/03/14 06:53:19;;;;;;;;;;;11.50;66.10;;;;;;2092760;28;1129;-44
2021/03/14 06:54:45;;;;;;;;;;;11.50;66.10;;;;;;2087201;28;1246;-45
2021/03/14 06:56:04;;;;;;;;;;;11.50;66.20;;;;;;2089674;28;1313;-45
2021/03/14 06:57:23;;;;;;;;;;;11.50;66.10;;;;;;2089765;28;1436;-45
2021/03/14 06:58:42;;;;;;;;;;;11.50;66.20;;;;;;2092908;28;1415;-45
2021/03/14 07:00:03;;;;;;;;;;;11.50;66.20;;;;;;2090349;28;1176;-45
2021/03/14 07:01:22;;;;;;;;;;;11.50;66.20;;;;;;2091138;28;1163;-45
2021/03/14 07:02:41;;;;;;;;;;;11.50;66.20;;;;;;2090975;28;1330;-46
2021/03/14 07:04:00;;;;;;;;;;;11.50;66.20;;;;;;2090388;28;1102;-47
2021/03/14 07:05:22;;;;;;;;;;;11.50;66.10;;;;;;2090510;28;1239;-46
2021/03/14 07:06:41;;;;;;;;;;;11.50;66.10;;;;;;2090755;28;1175;-46
2021/03/14 07:08:01;;;;;;;;;;;11.50;66.90;;;;;;2095857;28;1152;-46
2021/03/14 07:09:20;;;;;;;;;;;11.50;66.20;;;;;;2087341;28;1076;-47
2021/03/14 07:10:39;;;;;;;;;;;11.50;66.10;;;;;;2088790;28;1261;-46
2021/03/14 07:11:59;;;;;;;;;;;11.50;66.20;;;;;;2089961;28;1969;-47
2021/03/14 07:13:18;;;;;;;;;;;11.50;66.10;;;;;;2086713;28;1099;-46
2021/03/14 07:14:37;;;;;;;;;;;11.50;66.10;;;;;;2092179;28;1083;-47
2021/03/14 07:15:58;;;;;;;;;;;11.50;66.10;;;;;;2088948;28;1233;-46
2021/03/14 07:17:26;;;;;;;;;;;11.50;66.20;;;;;;2094413;28;1566;-46
2021/03/14 07:18:49;;;;;;;;;;;11.40;66.00;;;;;;2093803;28;1270;-46
2021/03/14 07:20:15;;;;;;;;;;;11.50;66.10;;;;;;2092214;28;1229;-46
2021/03/14 07:21:34;;;;;;;;;;;11.40;66.00;;;;;;2090810;28;1391;-55
2021/03/14 07:22:56;;;;;;;;;;;11.50;66.90;;;;;;2082346;28;1320;-46
2021/03/14 07:24:16;;;;;;;;;;;11.40;66.00;;;;;;2091443;28;1241;-47
2021/03/14 07:25:36;;;;;;;;;;;11.40;66.00;;;;;;2092932;28;1173;-46
2021/03/14 07:26:55;;;;;;;;;;;11.40;66.00;;;;;;2081805;28;1510;-46
2021/03/14 07:28:14;;;;;;;;;;;11.40;66.00;;;;;;2081587;28;1056;-47
2021/03/14 07:29:34;;;;;;;;;;;11.40;66.00;;;;;;2082669;28;1139;-46
2021/03/14 07:30:54;;;;;;;;;;;11.40;66.10;;;;;;2086848;28;1373;-46
2021/03/14 07:32:13;;;;;;;;;;;11.40;66.00;;;;;;2085995;28;1088;-47
2021/03/14 07:33:32;;;;;;;;;;;11.40;66.10;;;;;;2086463;28;1174;-46
2021/03/14 07:34:52;;;;;;;;;;;11.40;66.50;;;;;;2090477;28;1232;-46
2021/03/14 07:36:11;;;;;;;;;;;11.50;67.30;;;;;;2091201;28;1057;-44
2021/03/14 07:37:30;;;;;;;;;;;11.50;66.70;;;;;;2093224;28;1361;-46
2021/03/14 07:38:49;;;;;;;;;;;11.50;66.30;;;;;;2092471;28;1375;-46
2021/03/14 07:40:09;;;;;;;;;;;11.50;66.90;;;;;;2088041;28;1253;-45
2021/03/14 07:41:28;;;;;;;;;;;11.50;67.00;;;;;;2090726;28;1203;-45
2021/03/14 07:42:48;;;;;;;;;;;11.50;67.40;;;;;;2093218;28;1434;-46
2021/03/14 07:44:08;;;;;;;;;;;11.50;67.60;;;;;;2087631;28;1240;-46
2021/03/14 07:45:27;;;;;;;;;;;11.50;67.50;;;;;;2093798;28;1090;-46
2021/03/14 07:46:46;;;;;;;;;;;11.50;67.30;;;;;;2092873;28;1532;-47
2021/03/14 07:48:05;;;;;;;;;;;11.50;67.10;;;;;;2087718;28;1177;-47
2021/03/14 07:49:25;;;;;;;;;;;11.40;67.00;;;;;;2080959;28;1402;-47
2021/03/14 07:50:45;;;;;;;;;;;11.40;67.00;;;;;;2082396;28;1227;-46
2021/03/14 07:52:05;;;;;;;;;;;11.50;67.00;;;;;;2090398;28;1910;-45
2021/03/14 07:53:24;;;;;;;;;;;11.50;66.90;;;;;;2080918;28;1234;-46